Seven Seas Voyager — C6SW3 — position and weather

sailwx.info

Track history (hours):
 
Tides and Currents Weather Stations Pressure Air Temp Water Temp Dewpoint Dewpoint Depression Visibility Wind Speed Wind Dir Waves Ship Positions

Seven Seas Voyager

Last reported at 2020-Jul-07 18:25 UTC. Time now 2020-Jul-07 18:35 UTC.
Position N 43°33' E 010°18'.

Length 205 m; draft 7 m.

Type: Ship. MMSI: 31151000.

Date/timePositionNaut miles runAvg speedWind from/ knotsBaromVisibWave heightAir tempDewpointWater temp
2020-Jul-07 18:25N 43°33' E 010°18'0 0.0
2020-Jul-07 15:55N 43°33' E 010°18'0 0.0
2020-Jul-07 14:55N 43°33' E 010°18'0 0.0
2020-Jul-07 13:55N 43°33' E 010°18'0 0.0
2020-Jul-07 12:55N 43°33' E 010°18'0 0.0
2020-Jul-07 11:25N 43°33' E 010°18'0 0.0
2020-Jul-07 10:56N 43°33' E 010°18'0 0.0
2020-Jul-07 07:26N 43°33' E 010°18'0 0.0
2020-Jul-07 05:26N 43°33' E 010°18'0 0.0
2020-Jul-07 04:56N 43°33' E 010°18'0 0.0
2020-Jul-07 03:26N 43°33' E 010°18'0 0.0
2020-Jul-07 02:56N 43°33' E 010°18'0 0.0
2020-Jul-06 23:56N 43°33' E 010°18'0 0.0
2020-Jul-06 22:26N 43°33' E 010°18'0 0.0
2020-Jul-06 18:56N 43°33' E 010°18'0 0.0
2020-Jul-06 18:26N 43°33' E 010°18'0 0.0
2020-Jul-06 17:26N 43°33' E 010°18'0 0.0
2020-Jul-06 16:56N 43°33' E 010°18'0 0.0
2020-Jul-06 11:56N 43°33' E 010°18'0 0.0
2020-Jul-06 10:56N 43°33' E 010°18'0 0.0
2020-Jul-06 09:56N 43°33' E 010°18'0 0.0
2020-Jul-06 09:26N 43°33' E 010°18'0 0.0
2020-Jul-06 08:26N 43°33' E 010°18'0 0.0
2020-Jul-06 07:56N 43°33' E 010°18'18 5.2
2020-Jul-06 04:30N 43°31' E 009°53'13 8.6
2020-Jul-06 03:00N 43°33' E 009°36'4 8.4
2020-Jul-06 02:30N 43°33' E 009°30'8 8.3
2020-Jul-06 01:30N 43°34' E 009°19'16 4.4
2020-Jul-05 22:00N 43°49' E 009°26'10 5.2
2020-Jul-05 20:00N 43°43' E 009°14'30 7.4
2020-Jul-05 16:00N 43°54' E 009°53'4 8.5
2020-Jul-05 15:30N 43°58' E 009°53'1 0.3
2020-Jul-05 12:29N 43°58' E 009°53'0 0.0
2020-Jul-05 10:27N 43°58' E 009°53'9 1.8
2020-Jul-05 05:30N 43°49' E 009°52'11 7.7
2020-Jul-05 04:00N 43°43' E 009°39'9 8.7
2020-Jul-05 03:00N 43°44' E 009°27'8 7.8
2020-Jul-05 02:00N 43°49' E 009°18'7 1.9
2020-Jul-04 22:30N 43°44' E 009°25'10 4.0
2020-Jul-04 20:00N 43°40' E 009°38'4 8.7
2020-Jul-04 19:30N 43°39' E 009°32'7 7.3
2020-Jul-04 18:30N 43°34' E 009°40'28 4.5
2020-Jul-04 12:26N 43°33' E 010°18'0 0.0
2020-Jul-04 11:26N 43°33' E 010°18'0 0.0
2020-Jul-04 02:56N 43°33' E 010°18'0 0.0
2020-Jul-04 01:56N 43°33' E 010°18'5 1.3
2020-Jul-03 22:00N 43°30' E 010°12'5 9.0 050 / 101012.0 23.020.126.0
2020-Jul-03 21:26N 43°33' E 010°18'511.6
2020-Jul-03 21:00N 43°30' E 010°12'579.0 230 / 201012.0 23.020.126.0
2020-Jul-03 20:56N 43°33' E 010°18'5 5.4
2020-Jul-03 20:00N 43°30' E 010°12'5 2.5 230 / 201012.0 23.020.126.0
2020-Jul-03 17:56N 43°33' E 010°18'0 0.0
2020-Jul-03 16:26N 43°33' E 010°18'0 0.0
2020-Jul-03 15:56N 43°33' E 010°18'0 0.0
2020-Jul-03 15:26N 43°33' E 010°18'0 0.0
2020-Jul-03 14:26N 43°33' E 010°18'0 0.0
2020-Jul-03 13:56N 43°33' E 010°18'0 0.0
2020-Jul-03 13:26N 43°33' E 010°18'0 0.0
2020-Jul-03 10:26N 43°33' E 010°18'0 0.0
2020-Jul-03 09:56N 43°33' E 010°18'0 0.0
2020-Jul-03 09:26N 43°33' E 010°18'0 0.0
2020-Jul-03 08:56N 43°33' E 010°18'0 0.0
2020-Jul-03 08:26N 43°33' E 010°18'0 0.0
2020-Jul-03 06:26N 43°33' E 010°18'0 0.0
2020-Jul-03 03:56N 43°33' E 010°18'0 0.0
2020-Jul-03 02:56N 43°33' E 010°18'0 0.0
2020-Jul-03 02:26N 43°33' E 010°18'5 1.1
2020-Jul-02 22:00N 43°30' E 010°12'0 0.0 230 / 101012.010.8 24.021.126.0
2020-Jul-02 21:00N 43°30' E 010°12'5 9.0 230 / 101012.010.8 24.021.126.0
2020-Jul-02 20:26N 43°33' E 010°18'511.6
2020-Jul-02 20:00N 43°30' E 010°12'5 9.0 230 / 151012.010.8 24.021.126.0
2020-Jul-02 19:26N 43°33' E 010°18'0 0.0
2020-Jul-02 18:26N 43°33' E 010°18'0 0.0
2020-Jul-02 15:56N 43°33' E 010°18'0 0.0
2020-Jul-02 14:26N 43°33' E 010°18'0 0.0
2020-Jul-02 11:26N 43°33' E 010°18'0 0.0
2020-Jul-02 10:56N 43°33' E 010°18'0 0.0
2020-Jul-02 10:26N 43°33' E 010°18'0 0.0
2020-Jul-02 09:26N 43°33' E 010°18'0 0.0
2020-Jul-02 08:56N 43°33' E 010°18'0 0.0
2020-Jul-02 06:26N 43°33' E 010°18'0 0.0
2020-Jul-02 03:56N 43°33' E 010°18'0 0.0
2020-Jul-02 03:26N 43°33' E 010°18'0 0.0
2020-Jul-02 02:26N 43°33' E 010°18'0 0.0
2020-Jul-02 01:26N 43°33' E 010°18'0 0.0
2020-Jul-01 23:26N 43°33' E 010°18'5 3.5
2020-Jul-01 22:00N 43°30' E 010°12'0 0.0 1013.010.8 24.019.627.0
2020-Jul-01 21:00N 43°30' E 010°12'5 2.0 1013.010.8 25.020.727.0
2020-Jul-01 18:26N 43°33' E 010°18'0 0.0
2020-Jul-01 15:56N 43°33' E 010°18'0 0.0
2020-Jul-01 13:26N 43°33' E 010°18'5 1.5
2020-Jul-01 10:00N 43°30' E 010°12'0 0.0 1012.010.8 30.023.1
2020-Jul-01 09:00N 43°30' E 010°12'0 0.0 1014.010.8 30.023.1
2020-Jul-01 08:00N 43°30' E 010°12'5 2.0 1014.010.8 30.023.1
2020-Jul-01 05:26N 43°33' E 010°18'0 0.0
2020-Jul-01 03:56N 43°33' E 010°18'0 0.0
2020-Jul-01 02:26N 43°33' E 010°18'0 0.0
2020-Jun-30 23:56N 43°33' E 010°18'0 0.0
2020-Jun-30 21:26N 43°33' E 010°18'511.6
2020-Jun-30 21:00N 43°30' E 010°12'0 0.0 250 / 51012.010.8 23.018.527.0
2020-Jun-30 20:00N 43°30' E 010°12'5 3.2 250 / 51012.010.8 23.020.127.0
2020-Jun-30 18:26N 43°33' E 010°18'0 0.0
2020-Jun-30 17:56N 43°33' E 010°18'0 0.0
2020-Jun-30 17:26N 43°33' E 010°18'0 0.0
2020-Jun-30 16:26N 43°33' E 010°18'0 0.0
2020-Jun-30 15:26N 43°33' E 010°18'0 0.0
2020-Jun-30 14:26N 43°33' E 010°18'0 0.0
2020-Jun-30 13:26N 43°33' E 010°18'0 0.0
2020-Jun-30 11:56N 43°33' E 010°18'5 2.6
2020-Jun-30 10:00N 43°30' E 010°12'0 0.0 1011.010.8 30.020.028.0
2020-Jun-30 09:00N 43°30' E 010°12'0 0.0 1011.010.8 30.020.028.0
2020-Jun-30 08:00N 43°30' E 010°12'5 9.0 1011.010.8 30.020.028.0
2020-Jun-30 07:26N 43°33' E 010°18'0 0.0
2020-Jun-30 06:26N 43°33' E 010°18'0 0.0
2020-Jun-30 03:26N 43°33' E 010°18'0 0.0
2020-Jun-30 02:26N 43°33' E 010°18'0 0.0
2020-Jun-30 00:26N 43°33' E 010°18'0 0.0
2020-Jun-29 22:56N 43°33' E 010°18'0 0.0
2020-Jun-29 22:26N 43°33' E 010°18'511.6
2020-Jun-29 22:00N 43°30' E 010°12'5 9.0 1013.010.8 25.017.5
2020-Jun-29 21:26N 43°33' E 010°18'511.6
2020-Jun-29 21:00N 43°30' E 010°12'0 0.0 1013.010.8 25.017.5
2020-Jun-29 20:00N 43°30' E 010°12'5 1.4 1013.010.8 25.017.5
2020-Jun-29 16:26N 43°33' E 010°18'0 0.0
2020-Jun-29 15:56N 43°33' E 010°18'0 0.0
2020-Jun-29 13:56N 43°33' E 010°18'0 0.0
2020-Jun-29 13:26N 43°33' E 010°18'0 0.0
2020-Jun-29 06:56N 43°33' E 010°18'0 0.0
2020-Jun-29 05:26N 43°33' E 010°18'0 0.0
2020-Jun-29 04:26N 43°33' E 010°18'0 0.0
2020-Jun-29 00:26N 43°33' E 010°18'0 0.0
2020-Jun-28 23:26N 43°33' E 010°18'0 0.0
2020-Jun-28 22:26N 43°33' E 010°18'0 0.0
2020-Jun-28 21:56N 43°33' E 010°18'0 0.0
2020-Jun-28 21:26N 43°33' E 010°18'511.6
2020-Jun-28 21:00N 43°30' E 010°12'0 0.0 280 / 31016.010.8 23.020.1
2020-Jun-28 20:00N 43°30' E 010°12'5 3.2 270 / 51016.010.8 23.020.1
2020-Jun-28 18:26N 43°33' E 010°18'0 0.0
2020-Jun-28 14:26N 43°33' E 010°18'0 0.0
2020-Jun-28 13:20N 43°33' E 010°18'0 0.0
2020-Jun-28 11:59N 43°33' E 010°18'5 2.5
2020-Jun-28 10:00N 43°30' E 010°12'0 0.0 1016.010.8 26.020.2
2020-Jun-28 09:00N 43°30' E 010°12'0 0.0 1016.010.8 26.020.2
2020-Jun-28 08:00N 43°30' E 010°12'510.1 1016.010.8 26.020.2
2020-Jun-28 07:29N 43°33' E 010°18'0 0.0
2020-Jun-28 04:59N 43°33' E 010°18'0 0.0
2020-Jun-28 02:29N 43°33' E 010°18'0 0.0
2020-Jun-28 01:29N 43°33' E 010°18'0 0.0
2020-Jun-27 22:59N 43°33' E 010°18'0 0.0
2020-Jun-27 22:29N 43°33' E 010°18'510.2
2020-Jun-27 22:00N 43°30' E 010°12'0 0.0 1015.0
2020-Jun-27 21:00N 43°30' E 010°12'5 3.4 1015.0
2020-Jun-27 19:29N 43°33' E 010°18'0 0.0
2020-Jun-27 18:59N 43°33' E 010°18'  
Track history (hours):
 
Tides and Currents Weather Stations Pressure Air Temp Water Temp Dewpoint Dewpoint Depression Visibility Wind Speed Wind Dir Waves Ship Positions

Seven Seas Voyager

Last reported at 2020-Jul-07 18:25 UTC. Time now 2020-Jul-07 18:35 UTC.
Position N 43°33' E 010°18'.

Length 205 m; draft 7 m.

Type: Ship. MMSI: 31151000.

Date/timePositionNaut miles runAvg speedWind from/ knotsBaromVisibWave heightAir tempDewpointWater temp
2020-Jul-07 18:25N 43°33' E 010°18'0 0.0
2020-Jul-07 15:55N 43°33' E 010°18'0 0.0
2020-Jul-07 14:55N 43°33' E 010°18'0 0.0
2020-Jul-07 13:55N 43°33' E 010°18'0 0.0
2020-Jul-07 12:55N 43°33' E 010°18'0 0.0
2020-Jul-07 11:25N 43°33' E 010°18'0 0.0
2020-Jul-07 10:56N 43°33' E 010°18'0 0.0
2020-Jul-07 07:26N 43°33' E 010°18'0 0.0
2020-Jul-07 05:26N 43°33' E 010°18'0 0.0
2020-Jul-07 04:56N 43°33' E 010°18'0 0.0
2020-Jul-07 03:26N 43°33' E 010°18'0 0.0
2020-Jul-07 02:56N 43°33' E 010°18'0 0.0
2020-Jul-06 23:56N 43°33' E 010°18'0 0.0
2020-Jul-06 22:26N 43°33' E 010°18'0 0.0
2020-Jul-06 18:56N 43°33' E 010°18'0 0.0
2020-Jul-06 18:26N 43°33' E 010°18'0 0.0
2020-Jul-06 17:26N 43°33' E 010°18'0 0.0
2020-Jul-06 16:56N 43°33' E 010°18'0 0.0
2020-Jul-06 11:56N 43°33' E 010°18'0 0.0
2020-Jul-06 10:56N 43°33' E 010°18'0 0.0
2020-Jul-06 09:56N 43°33' E 010°18'0 0.0
2020-Jul-06 09:26N 43°33' E 010°18'0 0.0
2020-Jul-06 08:26N 43°33' E 010°18'0 0.0
2020-Jul-06 07:56N 43°33' E 010°18'18 5.2
2020-Jul-06 04:30N 43°31' E 009°53'13 8.6
2020-Jul-06 03:00N 43°33' E 009°36'4 8.4
2020-Jul-06 02:30N 43°33' E 009°30'8 8.3
2020-Jul-06 01:30N 43°34' E 009°19'16 4.4
2020-Jul-05 22:00N 43°49' E 009°26'10 5.2
2020-Jul-05 20:00N 43°43' E 009°14'30 7.4
2020-Jul-05 16:00N 43°54' E 009°53'4 8.5
2020-Jul-05 15:30N 43°58' E 009°53'1 0.3
2020-Jul-05 12:29N 43°58' E 009°53'0 0.0
2020-Jul-05 10:27N 43°58' E 009°53'9 1.8
2020-Jul-05 05:30N 43°49' E 009°52'11 7.7
2020-Jul-05 04:00N 43°43' E 009°39'9 8.7
2020-Jul-05 03:00N 43°44' E 009°27'8 7.8
2020-Jul-05 02:00N 43°49' E 009°18'7 1.9
2020-Jul-04 22:30N 43°44' E 009°25'10 4.0
2020-Jul-04 20:00N 43°40' E 009°38'4 8.7
2020-Jul-04 19:30N 43°39' E 009°32'7 7.3
2020-Jul-04 18:30N 43°34' E 009°40'28 4.5
2020-Jul-04 12:26N 43°33' E 010°18'0 0.0
2020-Jul-04 11:26N 43°33' E 010°18'0 0.0
2020-Jul-04 02:56N 43°33' E 010°18'0 0.0
2020-Jul-04 01:56N 43°33' E 010°18'5 1.3
2020-Jul-03 22:00N 43°30' E 010°12'5 9.0 050 / 101012.0 23.020.126.0
2020-Jul-03 21:26N 43°33' E 010°18'511.6
2020-Jul-03 21:00N 43°30' E 010°12'579.0 230 / 201012.0 23.020.126.0
2020-Jul-03 20:56N 43°33' E 010°18'5 5.4
2020-Jul-03 20:00N 43°30' E 010°12'5 2.5 230 / 201012.0 23.020.126.0
2020-Jul-03 17:56N 43°33' E 010°18'0 0.0
2020-Jul-03 16:26N 43°33' E 010°18'0 0.0
2020-Jul-03 15:56N 43°33' E 010°18'0 0.0
2020-Jul-03 15:26N 43°33' E 010°18'0 0.0
2020-Jul-03 14:26N 43°33' E 010°18'0 0.0
2020-Jul-03 13:56N 43°33' E 010°18'0 0.0
2020-Jul-03 13:26N 43°33' E 010°18'0 0.0
2020-Jul-03 10:26N 43°33' E 010°18'0 0.0
2020-Jul-03 09:56N 43°33' E 010°18'0 0.0
2020-Jul-03 09:26N 43°33' E 010°18'0 0.0
2020-Jul-03 08:56N 43°33' E 010°18'0 0.0
2020-Jul-03 08:26N 43°33' E 010°18'0 0.0
2020-Jul-03 06:26N 43°33' E 010°18'0 0.0
2020-Jul-03 03:56N 43°33' E 010°18'0 0.0
2020-Jul-03 02:56N 43°33' E 010°18'0 0.0
2020-Jul-03 02:26N 43°33' E 010°18'5 1.1
2020-Jul-02 22:00N 43°30' E 010°12'0 0.0 230 / 101012.010.8 24.021.126.0
2020-Jul-02 21:00N 43°30' E 010°12'5 9.0 230 / 101012.010.8 24.021.126.0
2020-Jul-02 20:26N 43°33' E 010°18'511.6
2020-Jul-02 20:00N 43°30' E 010°12'5 9.0 230 / 151012.010.8 24.021.126.0
2020-Jul-02 19:26N 43°33' E 010°18'0 0.0
2020-Jul-02 18:26N 43°33' E 010°18'0 0.0
2020-Jul-02 15:56N 43°33' E 010°18'0 0.0
2020-Jul-02 14:26N 43°33' E 010°18'0 0.0
2020-Jul-02 11:26N 43°33' E 010°18'0 0.0
2020-Jul-02 10:56N 43°33' E 010°18'0 0.0
2020-Jul-02 10:26N 43°33' E 010°18'0 0.0
2020-Jul-02 09:26N 43°33' E 010°18'0 0.0
2020-Jul-02 08:56N 43°33' E 010°18'0 0.0
2020-Jul-02 06:26N 43°33' E 010°18'0 0.0
2020-Jul-02 03:56N 43°33' E 010°18'0 0.0
2020-Jul-02 03:26N 43°33' E 010°18'0 0.0
2020-Jul-02 02:26N 43°33' E 010°18'0 0.0
2020-Jul-02 01:26N 43°33' E 010°18'0 0.0
2020-Jul-01 23:26N 43°33' E 010°18'5 3.5
2020-Jul-01 22:00N 43°30' E 010°12'0 0.0 1013.010.8 24.019.627.0
2020-Jul-01 21:00N 43°30' E 010°12'5 2.0 1013.010.8 25.020.727.0
2020-Jul-01 18:26N 43°33' E 010°18'0 0.0
2020-Jul-01 15:56N 43°33' E 010°18'0 0.0
2020-Jul-01 13:26N 43°33' E 010°18'5 1.5
2020-Jul-01 10:00N 43°30' E 010°12'0 0.0 1012.010.8 30.023.1
2020-Jul-01 09:00N 43°30' E 010°12'0 0.0 1014.010.8 30.023.1
2020-Jul-01 08:00N 43°30' E 010°12'5 2.0 1014.010.8 30.023.1
2020-Jul-01 05:26N 43°33' E 010°18'0 0.0
2020-Jul-01 03:56N 43°33' E 010°18'0 0.0
2020-Jul-01 02:26N 43°33' E 010°18'0 0.0
2020-Jun-30 23:56N 43°33' E 010°18'0 0.0
2020-Jun-30 21:26N 43°33' E 010°18'511.6
2020-Jun-30 21:00N 43°30' E 010°12'0 0.0 250 / 51012.010.8 23.018.527.0
2020-Jun-30 20:00N 43°30' E 010°12'5 3.2 250 / 51012.010.8 23.020.127.0
2020-Jun-30 18:26N 43°33' E 010°18'0 0.0
2020-Jun-30 17:56N 43°33' E 010°18'0 0.0
2020-Jun-30 17:26N 43°33' E 010°18'0 0.0
2020-Jun-30 16:26N 43°33' E 010°18'0 0.0
2020-Jun-30 15:26N 43°33' E 010°18'0 0.0
2020-Jun-30 14:26N 43°33' E 010°18'0 0.0
2020-Jun-30 13:26N 43°33' E 010°18'0 0.0
2020-Jun-30 11:56N 43°33' E 010°18'5 2.6
2020-Jun-30 10:00N 43°30' E 010°12'0 0.0 1011.010.8 30.020.028.0
2020-Jun-30 09:00N 43°30' E 010°12'0 0.0 1011.010.8 30.020.028.0
2020-Jun-30 08:00N 43°30' E 010°12'5 9.0 1011.010.8 30.020.028.0
2020-Jun-30 07:26N 43°33' E 010°18'0 0.0
2020-Jun-30 06:26N 43°33' E 010°18'0 0.0
2020-Jun-30 03:26N 43°33' E 010°18'0 0.0
2020-Jun-30 02:26N 43°33' E 010°18'0 0.0
2020-Jun-30 00:26N 43°33' E 010°18'0 0.0
2020-Jun-29 22:56N 43°33' E 010°18'0 0.0
2020-Jun-29 22:26N 43°33' E 010°18'511.6
2020-Jun-29 22:00N 43°30' E 010°12'5 9.0 1013.010.8 25.017.5
2020-Jun-29 21:26N 43°33' E 010°18'511.6
2020-Jun-29 21:00N 43°30' E 010°12'0 0.0 1013.010.8 25.017.5
2020-Jun-29 20:00N 43°30' E 010°12'5 1.4 1013.010.8 25.017.5
2020-Jun-29 16:26N 43°33' E 010°18'0 0.0
2020-Jun-29 15:56N 43°33' E 010°18'0 0.0
2020-Jun-29 13:56N 43°33' E 010°18'0 0.0
2020-Jun-29 13:26N 43°33' E 010°18'0 0.0
2020-Jun-29 06:56N 43°33' E 010°18'0 0.0
2020-Jun-29 05:26N 43°33' E 010°18'0 0.0
2020-Jun-29 04:26N 43°33' E 010°18'0 0.0
2020-Jun-29 00:26N 43°33' E 010°18'0 0.0
2020-Jun-28 23:26N 43°33' E 010°18'0 0.0
2020-Jun-28 22:26N 43°33' E 010°18'0 0.0
2020-Jun-28 21:56N 43°33' E 010°18'0 0.0
2020-Jun-28 21:26N 43°33' E 010°18'511.6
2020-Jun-28 21:00N 43°30' E 010°12'0 0.0 280 / 31016.010.8 23.020.1
2020-Jun-28 20:00N 43°30' E 010°12'5 3.2 270 / 51016.010.8 23.020.1
2020-Jun-28 18:26N 43°33' E 010°18'0 0.0
2020-Jun-28 14:26N 43°33' E 010°18'0 0.0
2020-Jun-28 13:20N 43°33' E 010°18'0 0.0
2020-Jun-28 11:59N 43°33' E 010°18'5 2.5
2020-Jun-28 10:00N 43°30' E 010°12'0 0.0 1016.010.8 26.020.2
2020-Jun-28 09:00N 43°30' E 010°12'0 0.0 1016.010.8 26.020.2
2020-Jun-28 08:00N 43°30' E 010°12'510.1 1016.010.8 26.020.2
2020-Jun-28 07:29N 43°33' E 010°18'0 0.0
2020-Jun-28 04:59N 43°33' E 010°18'0 0.0
2020-Jun-28 02:29N 43°33' E 010°18'0 0.0
2020-Jun-28 01:29N 43°33' E 010°18'0 0.0
2020-Jun-27 22:59N 43°33' E 010°18'0 0.0
2020-Jun-27 22:29N 43°33' E 010°18'510.2
2020-Jun-27 22:00N 43°30' E 010°12'0 0.0 1015.0
2020-Jun-27 21:00N 43°30' E 010°12'5 3.4 1015.0
2020-Jun-27 19:29N 43°33' E 010°18'0 0.0
2020-Jun-27 18:59N 43°33' E 010°18'  

Dump ship's entire track history